createdAt,value
2022-09-28T00:00:34.811Z,98517.22
2022-09-28T00:03:04.693Z,98518.88
2022-09-28T00:05:34.483Z,98518.91
2022-09-28T00:08:04.302Z,98511.84
2022-09-28T00:10:34.241Z,98508.69
2022-09-28T00:13:03.989Z,98510.38
2022-09-28T00:15:35.516Z,98516.78
2022-09-28T00:18:05.370Z,98516.19
2022-09-28T00:20:35.190Z,98523.22
2022-09-28T00:23:04.928Z,98513.88
2022-09-28T00:25:34.873Z,98519.28
2022-09-28T00:28:05.265Z,98518.69
2022-09-28T00:30:36.429Z,98516.81
2022-09-28T00:33:06.196Z,98519.47
2022-09-28T00:35:36.014Z,98518.88
2022-09-28T00:38:05.948Z,98516.38
2022-09-28T00:40:36.046Z,98518.03
2022-09-28T00:43:19.660Z,98529.03
2022-09-28T00:45:56.698Z,98527.19
2022-09-28T00:48:30.686Z,98519.69
2022-09-28T00:51:04.786Z,98519.06
2022-09-28T00:53:37.962Z,98526.31
2022-09-28T00:56:12.908Z,98522.13
2022-09-28T00:58:46.644Z,98520.50
2022-09-28T01:01:18.427Z,98521.94
2022-09-28T01:03:49.132Z,98527.94
2022-09-28T01:06:21.941Z,98515.72
2022-09-28T01:08:54.144Z,98501.63
2022-09-28T01:11:24.005Z,98516.53
2022-09-28T01:13:56.444Z,98497.00
2022-09-28T01:16:35.906Z,98512.34
2022-09-28T01:19:25.999Z,98511.06
2022-09-28T01:22:09.923Z,98518.13
2022-09-28T01:24:43.301Z,98518.72
2022-09-28T01:27:21.300Z,98515.81
2022-09-28T01:29:58.643Z,98514.31
2022-09-28T01:32:36.660Z,98513.28
2022-09-28T01:35:12.432Z,98515.34
2022-09-28T01:37:48.480Z,98514.47
2022-09-28T01:40:19.197Z,98508.88
2022-09-28T01:42:56.061Z,98499.94
2022-09-28T01:45:30.269Z,98513.88
2022-09-28T01:48:06.053Z,98504.50
2022-09-28T01:50:39.886Z,98517.72
2022-09-28T01:53:16.177Z,98498.31
2022-09-28T01:55:49.015Z,98514.44
2022-09-28T01:58:25.942Z,98520.16
2022-09-28T02:01:01.297Z,98521.44
2022-09-28T02:03:36.959Z,98521.28
2022-09-28T02:06:12.627Z,98518.16
2022-09-28T02:08:50.434Z,98526.75
2022-09-28T02:11:22.375Z,98537.59
2022-09-28T02:13:58.109Z,98515.78
2022-09-28T02:16:35.843Z,98529.78
2022-09-28T02:19:08.188Z,98526.50
2022-09-28T02:21:44.359Z,98521.56
2022-09-28T02:24:21.628Z,98527.38
2022-09-28T02:26:53.076Z,98530.53
2022-09-28T02:29:24.749Z,98530.81
2022-09-28T02:31:54.572Z,98527.72
2022-09-28T02:34:24.516Z,98534.16
2022-09-28T02:36:54.528Z,98528.38
2022-09-28T02:39:24.691Z,98530.53
2022-09-28T02:42:05.960Z,98532.50
2022-09-28T02:44:58.807Z,98527.56
2022-09-28T02:47:39.097Z,98528.72
2022-09-28T02:50:17.954Z,98524.94
2022-09-28T02:53:12.405Z,98514.31
2022-09-28T02:55:50.597Z,98510.88
2022-09-28T02:58:29.404Z,98510.50
2022-09-28T03:01:08.474Z,98515.19
2022-09-28T03:03:47.440Z,98513.78
2022-09-28T03:06:24.554Z,98517.75
2022-09-28T03:09:01.704Z,98528.59
2022-09-28T03:11:36.252Z,98532.16
2022-09-28T03:14:07.032Z,98528.63
2022-09-28T03:16:38.494Z,98531.53
2022-09-28T03:19:08.316Z,98539.97
2022-09-28T03:21:38.244Z,98536.88
2022-09-28T03:24:11.154Z,98530.41
2022-09-28T03:26:40.977Z,98541.66
2022-09-28T03:29:10.869Z,98536.72
2022-09-28T03:31:42.218Z,98544.13
2022-09-28T03:34:12.099Z,98554.75
2022-09-28T03:36:41.996Z,98555.28
2022-09-28T03:39:11.811Z,98551.94
2022-09-28T03:41:41.588Z,98552.75
2022-09-28T03:44:11.306Z,98551.53
2022-09-28T03:46:43.146Z,98544.19
2022-09-28T03:49:13.094Z,98558.22
2022-09-28T03:51:43.353Z,98550.34
2022-09-28T03:54:13.124Z,98559.53
2022-09-28T03:56:43.220Z,98562.28
2022-09-28T03:59:13.186Z,98559.44
2022-09-28T04:01:44.567Z,98556.97
2022-09-28T04:04:14.676Z,98562.34
2022-09-28T04:06:44.472Z,98559.19
2022-09-28T04:09:14.487Z,98556.84
2022-09-28T04:12:02.736Z,98561.78
2022-09-28T04:14:34.341Z,98563.47
2022-09-28T04:17:06.347Z,98556.41
2022-09-28T04:19:36.499Z,98558.19
2022-09-28T04:22:06.259Z,98556.44
2022-09-28T04:24:37.327Z,98556.16
2022-09-28T04:27:23.651Z,98552.63
2022-09-28T04:29:53.511Z,98566.00
2022-09-28T04:32:24.611Z,98559.72
2022-09-28T04:34:55.936Z,98559.69
2022-09-28T04:37:25.854Z,98555.38
2022-09-28T04:39:55.731Z,98568.41
2022-09-28T04:42:25.773Z,98569.41
2022-09-28T04:44:57.677Z,98565.16
2022-09-28T04:47:30.944Z,98573.16
2022-09-28T04:50:00.822Z,98579.09
2022-09-28T04:52:30.619Z,98589.94
2022-09-28T04:55:00.300Z,98594.94
2022-09-28T04:57:30.328Z,98593.22
2022-09-28T05:00:00.092Z,98597.03
2022-09-28T05:02:31.656Z,98594.66
2022-09-28T05:05:02.277Z,98599.91
2022-09-28T05:07:32.317Z,98610.31
2022-09-28T05:10:02.345Z,98598.63
2022-09-28T05:12:32.106Z,98603.38
2022-09-28T05:15:03.201Z,98601.34
2022-09-28T05:17:34.880Z,98595.94
2022-09-28T05:20:05.298Z,98596.88
2022-09-28T05:22:35.304Z,98598.59
2022-09-28T05:25:05.584Z,98611.66
2022-09-28T05:27:35.435Z,98619.06
2022-09-28T05:30:05.824Z,98624.72
2022-09-28T05:32:40.780Z,98616.56
2022-09-28T05:35:11.142Z,98624.38
2022-09-28T05:37:41.205Z,98619.19
2022-09-28T05:40:12.418Z,98626.19
2022-09-28T05:42:42.250Z,98632.59
2022-09-28T05:45:12.316Z,98629.66
2022-09-28T05:47:46.155Z,98627.84
2022-09-28T05:50:16.425Z,98607.59
2022-09-28T05:52:46.835Z,98621.88
2022-09-28T05:55:16.771Z,98632.66
2022-09-28T05:57:48.229Z,98632.50
2022-09-28T06:00:19.087Z,98626.31
2022-09-28T06:02:59.065Z,98628.38
2022-09-28T06:05:29.558Z,98637.78
2022-09-28T06:08:00.383Z,98588.34
2022-09-28T06:10:30.199Z,98629.72
2022-09-28T06:13:00.347Z,98633.44
2022-09-28T06:15:34.745Z,98613.28
2022-09-28T06:18:08.094Z,98632.84
2022-09-28T06:20:41.075Z,98631.44
2022-09-28T06:23:11.399Z,98640.78
2022-09-28T06:25:41.643Z,98644.31
2022-09-28T06:28:13.088Z,98641.84
2022-09-28T06:30:45.068Z,98642.47
2022-09-28T06:33:18.178Z,98645.56
2022-09-28T06:35:48.052Z,98644.34
2022-09-28T06:38:17.790Z,98641.84
2022-09-28T06:40:47.599Z,98641.63
2022-09-28T06:43:17.445Z,98593.00
2022-09-28T06:45:52.678Z,98646.16
2022-09-28T06:48:23.887Z,98640.13
2022-09-28T06:50:53.892Z,98643.88
2022-09-28T06:53:23.673Z,98653.81
2022-09-28T06:55:53.502Z,98658.41
2022-09-28T06:58:24.132Z,98645.31
2022-09-28T07:00:54.475Z,98642.78
2022-09-28T07:03:25.812Z,98649.84
2022-09-28T07:05:58.254Z,98634.66
2022-09-28T07:08:29.200Z,98652.09
2022-09-28T07:10:59.227Z,98641.47
2022-09-28T07:13:49.237Z,98648.28
2022-09-28T07:16:25.779Z,98643.25
2022-09-28T07:18:58.468Z,98645.28
2022-09-28T07:21:30.500Z,98641.06
2022-09-28T07:24:01.463Z,98639.97
2022-09-28T07:26:33.250Z,98637.06
2022-09-28T07:29:03.476Z,98638.66
2022-09-28T07:31:34.618Z,98639.66
2022-09-28T07:34:05.750Z,98643.97
2022-09-28T07:36:36.861Z,98645.56
2022-09-28T07:39:07.002Z,98654.88
2022-09-28T07:41:36.289Z,98650.63
2022-09-28T07:44:06.606Z,98644.13
2022-09-28T07:46:37.205Z,98652.38
2022-09-28T07:49:11.601Z,98655.19
2022-09-28T07:51:44.287Z,98652.13
2022-09-28T07:54:14.139Z,98645.03
2022-09-28T07:56:43.901Z,98644.34
2022-09-28T07:59:17.659Z,98645.97
2022-09-28T08:01:49.497Z,98652.44
2022-09-28T08:04:20.638Z,98651.78
2022-09-28T08:06:51.193Z,98656.53
2022-09-28T08:09:21.015Z,98657.69
2022-09-28T08:11:50.885Z,98647.63
2022-09-28T08:14:20.795Z,98649.72
2022-09-28T08:16:53.155Z,98646.41
2022-09-28T08:19:25.310Z,98652.38
2022-09-28T08:21:54.170Z,98641.41
2022-09-28T08:24:24.759Z,98647.91
2022-09-28T08:26:55.641Z,98646.72
2022-09-28T08:29:25.713Z,98635.53
2022-09-28T08:31:59.531Z,98641.47
2022-09-28T08:34:32.861Z,98639.00
2022-09-28T08:37:02.804Z,98641.19
2022-09-28T08:39:34.593Z,98621.81
2022-09-28T08:42:32.083Z,98617.13
2022-09-28T08:45:09.180Z,98640.47
2022-09-28T08:48:07.530Z,98634.50
2022-09-28T08:50:48.417Z,98624.25
2022-09-28T08:53:36.100Z,98625.94
2022-09-28T08:56:12.012Z,98628.56
2022-09-28T08:58:44.452Z,98631.16
2022-09-28T09:01:19.020Z,98630.69
2022-09-28T09:03:50.503Z,98633.16
2022-09-28T09:06:30.180Z,98627.06
2022-09-28T09:09:09.560Z,98628.81
2022-09-28T09:11:52.541Z,98624.81
2022-09-28T09:14:51.008Z,98615.50
2022-09-28T09:17:32.219Z,98612.06
2022-09-28T09:20:12.195Z,98604.78
2022-09-28T09:22:58.693Z,98601.69
2022-09-28T09:25:36.553Z,98605.84
2022-09-28T09:28:35.348Z,98610.31
2022-09-28T09:31:11.861Z,98611.66
2022-09-28T09:34:02.750Z,98609.41
2022-09-28T09:36:43.914Z,98608.94
2022-09-28T09:39:30.209Z,98601.94
2022-09-28T09:42:13.683Z,98596.97
2022-09-28T09:45:01.485Z,98599.78
2022-09-28T09:47:34.869Z,98603.81
2022-09-28T09:50:12.227Z,98568.75
2022-09-28T09:52:51.640Z,98605.94
2022-09-28T09:55:30.208Z,98608.88
2022-09-28T09:58:10.264Z,98598.59
2022-09-28T10:00:42.624Z,98597.63
2022-09-28T10:03:21.573Z,98594.28
2022-09-28T10:05:58.619Z,98593.81
2022-09-28T10:08:30.366Z,98593.84
2022-09-28T10:11:10.681Z,98594.41
2022-09-28T10:13:41.154Z,98587.06
2022-09-28T10:16:11.174Z,98595.09
2022-09-28T10:18:42.309Z,98589.47
2022-09-28T10:21:14.924Z,98594.81
2022-09-28T10:23:46.251Z,98589.84
2022-09-28T10:26:25.065Z,98584.97
2022-09-28T10:28:59.179Z,98579.03
2022-09-28T10:31:37.889Z,98571.16
2022-09-28T10:34:09.108Z,98563.28
2022-09-28T10:36:48.100Z,98559.63
2022-09-28T10:39:29.576Z,98562.16
2022-09-28T10:42:04.514Z,98561.44
2022-09-28T10:44:39.877Z,98563.00
2022-09-28T10:47:14.841Z,98532.94
2022-09-28T10:49:48.499Z,98553.94
2022-09-28T10:52:36.900Z,98539.16
2022-09-28T10:55:27.547Z,98537.66
2022-09-28T10:57:58.769Z,98529.41
2022-09-28T11:00:36.172Z,98529.22
2022-09-28T11:03:06.508Z,98526.69
2022-09-28T11:05:38.814Z,98525.41
2022-09-28T11:08:09.592Z,98524.25
2022-09-28T11:10:39.564Z,98523.09
2022-09-28T11:13:11.895Z,98519.47
2022-09-28T11:15:44.842Z,98516.84
2022-09-28T11:18:26.391Z,98511.22
2022-09-28T11:21:12.880Z,98521.63
2022-09-28T11:23:55.869Z,98507.06
2022-09-28T11:26:25.926Z,98460.38
2022-09-28T11:28:57.215Z,98513.03
2022-09-28T11:31:29.596Z,98487.69
2022-09-28T11:34:13.934Z,98505.88
2022-09-28T11:37:06.431Z,98500.78
2022-09-28T11:39:47.107Z,98501.16
2022-09-28T11:42:30.520Z,98503.94
2022-09-28T11:45:14.022Z,98504.31
2022-09-28T11:47:51.624Z,98485.00
2022-09-28T11:50:43.894Z,98504.94
2022-09-28T11:53:22.063Z,98501.50
2022-09-28T11:55:59.157Z,98507.25
2022-09-28T11:58:34.226Z,98497.69
2022-09-28T12:01:14.290Z,98500.13
2022-09-28T12:03:51.347Z,98507.56
2022-09-28T12:06:26.715Z,98491.22
2022-09-28T12:09:04.607Z,98482.81
2022-09-28T12:11:40.287Z,98500.88
2022-09-28T12:14:19.257Z,98501.72
2022-09-28T12:17:10.979Z,98486.09
2022-09-28T12:19:46.467Z,98478.25
2022-09-28T12:22:22.143Z,98489.91
2022-09-28T12:24:56.626Z,98488.19
2022-09-28T12:27:33.787Z,98491.25
2022-09-28T12:30:06.150Z,98487.78
2022-09-28T12:32:42.934Z,98492.78
2022-09-28T12:35:14.804Z,98496.25
2022-09-28T12:37:58.664Z,98484.97
2022-09-28T12:40:42.491Z,98488.34
2022-09-28T12:43:37.735Z,98478.28
2022-09-28T12:46:30.486Z,98485.81
2022-09-28T12:52:28.227Z,98485.78
2022-09-28T12:55:23.236Z,98491.91
2022-09-28T12:58:00.096Z,98479.28
2022-09-28T13:00:40.026Z,98478.53
2022-09-28T13:03:32.466Z,98486.22
2022-09-28T13:06:29.378Z,98439.16
2022-09-28T13:09:16.446Z,98477.81
2022-09-28T13:11:59.981Z,98481.63
2022-09-28T13:14:53.214Z,98473.56
2022-09-28T13:17:37.822Z,98486.44
2022-09-28T13:20:32.280Z,98478.91
2022-09-28T13:23:15.429Z,98476.63
2022-09-28T13:25:50.962Z,98474.38
2022-09-28T13:28:27.048Z,98481.91
2022-09-28T13:31:00.339Z,98478.47
2022-09-28T13:33:36.770Z,98482.16
2022-09-28T13:36:42.543Z,98482.00
2022-09-28T13:39:38.924Z,98483.16
2022-09-28T13:42:11.163Z,98481.44
2022-09-28T13:44:59.710Z,98472.81
2022-09-28T13:47:49.620Z,98476.03
2022-09-28T13:50:28.821Z,98478.47
2022-09-28T13:53:05.870Z,98461.53
2022-09-28T13:55:50.778Z,98476.03
2022-09-28T13:58:27.468Z,98465.75
2022-09-28T14:01:03.527Z,98480.28
2022-09-28T14:03:53.878Z,98478.03
2022-09-28T14:06:27.060Z,98478.59
2022-09-28T14:09:25.102Z,98481.97
2022-09-28T14:11:58.776Z,98475.88
2022-09-28T14:14:32.411Z,98482.97
2022-09-28T14:17:50.459Z,98480.75
2022-09-28T14:20:26.311Z,98477.69
2022-09-28T14:23:33.998Z,98476.19
2022-09-28T14:26:33.061Z,98469.78
2022-09-28T14:29:17.364Z,98424.13
2022-09-28T14:31:47.428Z,98470.75
2022-09-28T14:34:34.193Z,98410.78
2022-09-28T14:37:23.207Z,98479.50
2022-09-28T14:40:11.050Z,98469.66
2022-09-28T14:42:41.230Z,98475.59
2022-09-28T14:45:46.049Z,98477.25
2022-09-28T14:48:21.320Z,98480.13
2022-09-28T14:50:51.508Z,98483.56
2022-09-28T14:53:24.912Z,98469.03
2022-09-28T14:55:58.882Z,98480.69
2022-09-28T14:58:30.296Z,98473.97
2022-09-28T15:01:06.578Z,98477.44
2022-09-28T15:03:40.538Z,98480.53
2022-09-28T15:06:16.187Z,98479.59
2022-09-28T15:08:46.413Z,98493.34
2022-09-28T15:11:19.352Z,98490.53
2022-09-28T15:13:53.406Z,98484.41
2022-09-28T15:16:25.765Z,98498.59
2022-09-28T15:19:22.823Z,98461.78
2022-09-28T15:21:52.893Z,98498.84
2022-09-28T15:24:30.656Z,98494.72
2022-09-28T15:27:01.875Z,98498.03
2022-09-28T15:29:33.556Z,98502.28
2022-09-28T15:32:04.870Z,98504.75
2022-09-28T15:34:54.776Z,98511.75
2022-09-28T15:37:27.732Z,98494.84
2022-09-28T15:39:59.343Z,98512.81
2022-09-28T15:42:29.263Z,98512.41
2022-09-28T15:45:07.825Z,98513.22
2022-09-28T15:47:40.115Z,98515.44
2022-09-28T15:50:23.017Z,98502.38
2022-09-28T15:53:00.764Z,98521.75
2022-09-28T15:55:33.471Z,98524.63
2022-09-28T15:58:08.810Z,98522.47
2022-09-28T16:00:38.816Z,98521.75
2022-09-28T16:03:24.895Z,98509.97
2022-09-28T16:06:07.555Z,98524.13
2022-09-28T16:08:42.798Z,98526.16
2022-09-28T16:11:18.261Z,98487.53
2022-09-28T16:14:01.833Z,98532.06
2022-09-28T16:16:35.506Z,98535.03
2022-09-28T16:19:07.429Z,98541.19
2022-09-28T16:21:44.605Z,98533.72
2022-09-28T16:24:23.537Z,98524.53
2022-09-28T16:26:59.381Z,98539.16
2022-09-28T16:29:39.169Z,98534.56
2022-09-28T16:32:42.488Z,98536.34
2022-09-28T16:35:26.546Z,98530.56
2022-09-28T16:38:03.731Z,98530.09
2022-09-28T16:40:35.081Z,98511.31
2022-09-28T16:43:08.121Z,98528.31
2022-09-28T16:45:39.309Z,98530.56
2022-09-28T16:48:11.021Z,98518.53
2022-09-28T16:50:42.366Z,98537.16
2022-09-28T16:53:32.763Z,98534.84
2022-09-28T16:56:04.730Z,98538.69
2022-09-28T16:58:39.202Z,98524.16
2022-09-28T17:01:12.942Z,98533.25
2022-09-28T17:03:46.838Z,98527.25
2022-09-28T17:06:20.269Z,98540.84
2022-09-28T17:08:50.017Z,98542.69
2022-09-28T17:11:24.633Z,98541.88
2022-09-28T17:13:59.107Z,98550.84
2022-09-28T17:16:58.201Z,98545.31
2022-09-28T17:19:25.617Z,98551.91
2022-09-28T17:21:57.168Z,98548.59
2022-09-28T17:24:26.976Z,98556.63
2022-09-28T17:26:56.983Z,98558.75
2022-09-28T17:29:27.756Z,98556.50
2022-09-28T17:31:57.572Z,98567.84
2022-09-28T17:34:27.644Z,98567.13
2022-09-28T17:36:58.850Z,98566.75
2022-09-28T17:39:28.652Z,98568.28
2022-09-28T17:41:58.730Z,98570.88
2022-09-28T17:44:29.212Z,98570.03
2022-09-28T17:47:00.654Z,98568.63
2022-09-28T17:49:30.419Z,98571.41
2022-09-28T17:52:02.017Z,98573.56
2022-09-28T17:54:33.841Z,98574.59
2022-09-28T17:57:03.582Z,98577.78
2022-09-28T17:59:33.355Z,98570.53
2022-09-28T18:02:04.563Z,98573.47
2022-09-28T18:04:51.378Z,98569.34
2022-09-28T18:07:24.895Z,98573.56
2022-09-28T18:09:56.723Z,98569.88
2022-09-28T18:12:26.760Z,98580.84
2022-09-28T18:14:56.547Z,98586.47
2022-09-28T18:17:26.529Z,98586.69
2022-09-28T18:19:56.709Z,98580.91
2022-09-28T18:22:27.897Z,98590.94
2022-09-28T18:24:57.881Z,98581.44
2022-09-28T18:27:29.329Z,98593.22
2022-09-28T18:29:59.247Z,98601.41
2022-09-28T18:32:29.371Z,98594.19
2022-09-28T18:35:00.747Z,98602.41
2022-09-28T18:37:32.067Z,98603.31
2022-09-28T18:40:02.755Z,98613.56
2022-09-28T18:42:35.811Z,98609.63
2022-09-28T18:45:07.864Z,98609.03
2022-09-28T18:47:38.049Z,98615.53
2022-09-28T18:50:09.011Z,98621.69
2022-09-28T18:52:41.151Z,98609.88
2022-09-28T18:55:12.889Z,98614.69
2022-09-28T18:57:44.180Z,98610.31
2022-09-28T19:00:16.083Z,98617.66
2022-09-28T19:02:50.290Z,98616.41
2022-09-28T19:05:20.568Z,98621.00
2022-09-28T19:07:52.442Z,98628.94
2022-09-28T19:10:22.538Z,98636.94
2022-09-28T19:12:53.087Z,98632.19
2022-09-28T19:15:22.964Z,98635.59
2022-09-28T19:17:52.960Z,98630.44
2022-09-28T19:20:22.989Z,98641.25
2022-09-28T19:22:54.160Z,98642.53
2022-09-28T19:25:24.340Z,98640.25
2022-09-28T19:27:54.369Z,98657.28
2022-09-28T19:30:24.720Z,98614.72
2022-09-28T19:32:54.553Z,98645.22
2022-09-28T19:35:24.312Z,98641.75
2022-09-28T19:37:56.141Z,98643.38
2022-09-28T19:40:26.017Z,98652.72
2022-09-28T19:42:55.779Z,98641.66
2022-09-28T19:45:25.900Z,98639.56
2022-09-28T19:47:59.572Z,98647.09
2022-09-28T19:50:29.175Z,98648.50
2022-09-28T19:53:01.670Z,98645.63
2022-09-28T19:55:37.012Z,98649.13
2022-09-28T19:58:06.793Z,98638.97
2022-09-28T20:00:39.849Z,98641.66
2022-09-28T20:03:09.716Z,98637.28
2022-09-28T20:05:41.497Z,98642.72
2022-09-28T20:08:14.884Z,98642.53
2022-09-28T20:10:52.347Z,98653.19
2022-09-28T20:13:22.835Z,98649.06
2022-09-28T20:15:53.960Z,98656.34
2022-09-28T20:18:23.806Z,98655.72
2022-09-28T20:21:02.657Z,98667.41
2022-09-28T20:23:36.203Z,98668.44
2022-09-28T20:26:07.078Z,98680.16
2022-09-28T20:28:36.905Z,98673.06
2022-09-28T20:31:08.351Z,98674.97
2022-09-28T20:33:38.926Z,98673.56
2022-09-28T20:36:10.825Z,98674.00
2022-09-28T20:38:42.455Z,98660.94
2022-09-28T20:41:13.557Z,98671.53
2022-09-28T20:43:43.355Z,98675.28
2022-09-28T20:46:14.525Z,98673.19
2022-09-28T20:48:44.720Z,98677.56
2022-09-28T20:51:16.365Z,98679.25
2022-09-28T20:53:50.944Z,98675.09
2022-09-28T20:56:23.029Z,98672.84
2022-09-28T20:58:53.938Z,98674.09
2022-09-28T21:01:25.466Z,98669.13
2022-09-28T21:03:56.595Z,98675.38
2022-09-28T21:06:28.157Z,98683.72
2022-09-28T21:08:59.993Z,98672.88
2022-09-28T21:11:31.081Z,98679.75
2022-09-28T21:14:02.375Z,98676.28
2022-09-28T21:16:33.675Z,98678.53
2022-09-28T21:19:04.058Z,98679.38
2022-09-28T21:21:34.855Z,98684.41
2022-09-28T21:24:06.871Z,98691.06
2022-09-28T21:26:36.753Z,98696.88
2022-09-28T21:29:08.692Z,98684.19
2022-09-28T21:31:40.392Z,98691.28
2022-09-28T21:34:13.819Z,98683.59
2022-09-28T21:36:44.170Z,98686.69
2022-09-28T21:39:15.598Z,98694.78
2022-09-28T21:41:45.814Z,98687.50
2022-09-28T21:44:15.878Z,98695.78
2022-09-28T21:46:45.798Z,98694.53
2022-09-28T21:49:15.684Z,98686.59
2022-09-28T21:51:47.177Z,98693.84
2022-09-28T21:54:18.442Z,98688.84
2022-09-28T21:56:48.511Z,98684.88
2022-09-28T21:59:18.261Z,98683.00
2022-09-28T22:01:48.296Z,98686.31
2022-09-28T22:04:18.147Z,98682.78
2022-09-28T22:06:47.999Z,98687.16
2022-09-28T22:09:19.303Z,98682.34
2022-09-28T22:11:53.886Z,98686.50
2022-09-28T22:14:23.711Z,98685.06
2022-09-28T22:16:53.604Z,98686.50
2022-09-28T22:19:23.359Z,98654.78
2022-09-28T22:21:53.108Z,98696.09
2022-09-28T22:24:24.875Z,98693.00
2022-09-28T22:26:54.707Z,98689.66
2022-09-28T22:29:24.494Z,98681.47
2022-09-28T22:32:00.161Z,98686.50
2022-09-28T22:34:31.683Z,98682.72
2022-09-28T22:37:02.960Z,98692.72
2022-09-28T22:39:37.503Z,98690.25
2022-09-28T22:42:07.829Z,98695.66
2022-09-28T22:44:37.779Z,98696.75
2022-09-28T22:47:07.627Z,98695.28
2022-09-28T22:49:37.385Z,98696.50
2022-09-28T22:52:07.335Z,98692.13
2022-09-28T22:54:40.382Z,98682.28
2022-09-28T22:57:10.195Z,98691.00
2022-09-28T22:59:40.035Z,98689.13
2022-09-28T23:02:10.084Z,98690.16
2022-09-28T23:04:39.811Z,98691.84
2022-09-28T23:07:09.827Z,98700.97
2022-09-28T23:09:40.984Z,98700.75
2022-09-28T23:12:10.815Z,98691.75
2022-09-28T23:14:40.915Z,98698.00
2022-09-28T23:17:10.748Z,98674.31
2022-09-28T23:19:41.082Z,98692.38
2022-09-28T23:22:10.937Z,98688.22
2022-09-28T23:24:42.051Z,98697.19
2022-09-28T23:27:11.900Z,98692.22
2022-09-28T23:29:46.819Z,98691.56
2022-09-28T23:32:17.998Z,98693.44
2022-09-28T23:34:47.777Z,98689.72
2022-09-28T23:37:17.575Z,98693.06
2022-09-28T23:39:48.664Z,98683.94
2022-09-28T23:42:18.497Z,98695.78
2022-09-28T23:44:48.351Z,98696.81
2022-09-28T23:47:18.289Z,98694.53
2022-09-28T23:49:48.091Z,98694.75
2022-09-28T23:52:18.073Z,98703.47
2022-09-28T23:54:59.116Z,98704.13
2022-09-28T23:57:28.964Z,98697.50
2022-09-28T23:59:58.695Z,98688.94
